createdAt,value
2023-05-24T04:01:45.735Z,11.20
2023-05-24T04:04:13.631Z,11.10
2023-05-24T04:09:10.222Z,11.00
2023-05-24T04:11:38.158Z,11.00
2023-05-24T04:14:06.273Z,11.00
2023-05-24T04:16:34.721Z,11.10
2023-05-24T04:19:04.368Z,11.10
2023-05-24T04:21:33.286Z,11.10
2023-05-24T04:24:01.563Z,11.10
2023-05-24T04:26:29.765Z,11.10
2023-05-24T04:28:57.552Z,11.20
2023-05-24T04:31:26.179Z,11.20
2023-05-24T04:33:54.100Z,11.30
2023-05-24T04:36:25.128Z,11.20
2023-05-24T04:38:56.125Z,11.20
2023-05-24T04:41:24.364Z,11.20
2023-05-24T04:43:52.294Z,11.20
2023-05-24T04:46:20.127Z,11.10
2023-05-24T04:48:48.223Z,11.10
2023-05-24T04:51:16.158Z,11.10
2023-05-24T04:53:45.486Z,11.10
2023-05-24T04:56:14.916Z,11.10
2023-05-24T04:58:42.821Z,11.10
2023-05-24T05:01:10.669Z,11.10
2023-05-24T05:03:38.561Z,11.10
2023-05-24T05:06:06.712Z,11.00
2023-05-24T05:08:34.525Z,11.10
2023-05-24T05:11:03.846Z,11.10
2023-05-24T05:13:31.692Z,11.10
2023-05-24T05:15:59.628Z,11.10
2023-05-24T05:18:27.533Z,11.20
2023-05-24T05:20:55.384Z,11.20
2023-05-24T05:23:23.269Z,11.20
2023-05-24T05:25:51.121Z,11.10
2023-05-24T05:28:20.247Z,11.10
2023-05-24T05:30:48.061Z,11.10
2023-05-24T05:33:16.098Z,11.10
2023-05-24T05:35:43.907Z,13.40
2023-05-24T05:38:11.977Z,11.10
2023-05-24T05:40:39.913Z,11.10
2023-05-24T05:43:08.489Z,11.00
2023-05-24T05:45:37.704Z,11.00
2023-05-24T05:48:06.782Z,11.00
2023-05-24T05:50:34.709Z,11.00
2023-05-24T05:53:02.519Z,11.20
2023-05-24T05:55:30.418Z,11.20
2023-05-24T05:57:58.289Z,11.30
2023-05-24T06:00:26.501Z,11.30
2023-05-24T06:02:55.852Z,11.40
2023-05-24T06:05:23.832Z,11.50
2023-05-24T06:07:51.695Z,11.60
2023-05-24T06:10:19.860Z,11.60
2023-05-24T06:12:47.805Z,11.70
2023-05-24T06:15:15.688Z,11.60
2023-05-24T06:17:43.995Z,11.70
2023-05-24T06:20:16.870Z,11.50
2023-05-24T06:25:14.704Z,11.30
2023-05-24T06:27:42.609Z,11.30
2023-05-24T06:30:11.272Z,11.30
2023-05-24T06:32:39.198Z,11.40
2023-05-24T06:35:08.149Z,11.40
2023-05-24T06:37:38.540Z,11.40
2023-05-24T06:40:08.909Z,11.60
2023-05-24T06:42:37.409Z,11.60
2023-05-24T06:45:05.905Z,11.50
2023-05-24T06:47:33.850Z,11.50
2023-05-24T06:50:02.068Z,11.60
2023-05-24T06:52:29.863Z,11.80
2023-05-24T06:54:59.114Z,11.80
2023-05-24T06:57:28.024Z,11.80
2023-05-24T06:59:56.743Z,11.90
2023-05-24T07:02:27.652Z,11.70
2023-05-24T07:04:55.920Z,11.90
2023-05-24T07:07:23.897Z,12.00
2023-05-24T07:09:51.966Z,12.10
2023-05-24T07:12:21.276Z,12.10
2023-05-24T07:14:49.412Z,12.10
2023-05-24T07:17:17.465Z,12.10
2023-05-24T07:19:45.372Z,12.00
2023-05-24T07:22:13.344Z,11.90
2023-05-24T07:24:41.186Z,12.00
2023-05-24T07:27:09.423Z,11.90
2023-05-24T07:29:38.782Z,11.90
2023-05-24T07:32:07.446Z,11.90
2023-05-24T07:34:35.513Z,11.90
2023-05-24T07:37:03.462Z,11.60
2023-05-24T07:39:31.275Z,11.50
2023-05-24T07:42:00.076Z,11.60
2023-05-24T07:44:29.259Z,11.80
2023-05-24T07:46:58.568Z,11.90
2023-05-24T07:49:26.924Z,11.90
2023-05-24T07:51:56.923Z,11.90
2023-05-24T07:54:25.302Z,12.10
2023-05-24T07:56:53.376Z,12.20
2023-05-24T07:59:22.957Z,12.20
2023-05-24T08:01:51.193Z,12.20
2023-05-24T08:04:20.821Z,12.30
2023-05-24T08:06:48.898Z,12.30
2023-05-24T08:11:45.209Z,12.50
2023-05-24T08:14:13.051Z,12.40
2023-05-24T08:16:41.271Z,12.40
2023-05-24T08:19:09.166Z,12.30
2023-05-24T08:21:38.748Z,12.30
2023-05-24T08:24:09.274Z,12.30
2023-05-24T08:26:38.305Z,12.20
2023-05-24T08:29:06.264Z,12.20
2023-05-24T08:31:34.438Z,12.20
2023-05-24T08:34:02.871Z,12.20
2023-05-24T08:36:31.150Z,12.30
2023-05-24T08:39:00.674Z,12.30
2023-05-24T08:41:29.748Z,12.30
2023-05-24T08:44:00.890Z,12.30
2023-05-24T08:46:29.763Z,12.30
2023-05-24T08:48:59.698Z,12.40
2023-05-24T08:51:29.123Z,12.40
2023-05-24T08:53:57.958Z,12.50
2023-05-24T08:56:28.793Z,12.70
2023-05-24T08:58:56.786Z,12.70
2023-05-24T09:01:27.069Z,12.70
2023-05-24T09:03:57.115Z,12.70
2023-05-24T09:06:25.878Z,12.80
2023-05-24T09:08:54.042Z,12.90
2023-05-24T09:11:22.783Z,13.00
2023-05-24T09:13:52.740Z,13.00
2023-05-24T09:16:21.334Z,13.10
2023-05-24T09:18:49.137Z,13.10
2023-05-24T09:21:17.641Z,13.20
2023-05-24T09:23:46.415Z,13.20
2023-05-24T09:26:14.691Z,13.20
2023-05-24T09:28:44.387Z,13.20
2023-05-24T09:31:13.728Z,13.20
2023-05-24T09:33:41.715Z,13.20
2023-05-24T09:36:10.605Z,13.20
2023-05-24T09:38:38.401Z,13.20
2023-05-24T09:41:08.261Z,13.10
2023-05-24T09:43:47.735Z,13.10
2023-05-24T09:46:20.054Z,13.10
2023-05-24T09:48:58.474Z,13.10
2023-05-24T09:51:27.661Z,13.20
2023-05-24T09:53:58.743Z,13.20
2023-05-24T09:56:27.419Z,13.50
2023-05-24T09:58:56.644Z,13.20
2023-05-24T10:01:26.905Z,13.50
2023-05-24T10:03:55.755Z,13.60
2023-05-24T10:06:24.192Z,13.60
2023-05-24T10:08:54.301Z,13.70
2023-05-24T10:11:22.384Z,13.80
2023-05-24T10:13:51.117Z,13.90
2023-05-24T10:18:49.054Z,13.90
2023-05-24T10:21:18.724Z,14.00
2023-05-24T10:23:53.560Z,14.10
2023-05-24T10:26:26.057Z,14.20
2023-05-24T10:28:58.809Z,14.20
2023-05-24T10:31:31.389Z,14.30
2023-05-24T10:34:07.595Z,14.50
2023-05-24T10:36:36.902Z,14.60
2023-05-24T10:39:05.143Z,14.50
2023-05-24T10:41:40.937Z,14.50
2023-05-24T10:44:13.064Z,14.50
2023-05-24T10:47:09.964Z,14.40
2023-05-24T10:49:40.142Z,14.40
2023-05-24T10:52:13.508Z,14.50
2023-05-24T10:54:52.555Z,14.60
2023-05-24T10:57:30.583Z,14.60
2023-05-24T11:02:29.883Z,14.90
2023-05-24T11:07:28.936Z,14.80
2023-05-24T11:09:59.815Z,14.80
2023-05-24T11:12:34.584Z,15.00
2023-05-24T11:15:04.075Z,15.20
2023-05-24T11:17:31.914Z,15.20
2023-05-24T11:20:05.628Z,15.10
2023-05-24T11:22:34.150Z,15.10
2023-05-24T11:25:06.107Z,15.10
2023-05-24T11:27:35.310Z,15.20
2023-05-24T11:30:04.336Z,15.20
2023-05-24T11:32:34.398Z,15.20
2023-05-24T11:35:08.808Z,15.30
2023-05-24T11:37:46.053Z,15.30
2023-05-24T11:40:16.414Z,15.40
2023-05-24T11:42:45.078Z,15.60
2023-05-24T11:45:13.928Z,15.90
2023-05-24T11:47:41.865Z,15.90
2023-05-24T11:50:16.156Z,15.90
2023-05-24T11:52:44.253Z,16.00
2023-05-24T11:55:17.007Z,16.10
2023-05-24T11:57:51.991Z,16.10
2023-05-24T12:00:25.852Z,16.50
2023-05-24T12:02:56.877Z,16.50
2023-05-24T12:05:26.350Z,16.50
2023-05-24T12:08:04.784Z,16.50
2023-05-24T12:10:34.219Z,16.20
2023-05-24T12:13:02.763Z,16.10
2023-05-24T12:15:30.723Z,16.10
2023-05-24T12:20:30.649Z,16.30
2023-05-24T12:22:58.834Z,16.30
2023-05-24T12:25:27.126Z,16.20
2023-05-24T12:27:56.131Z,16.10
2023-05-24T12:30:24.794Z,15.90
2023-05-24T12:32:54.247Z,15.90
2023-05-24T12:35:22.888Z,16.00
2023-05-24T12:38:00.181Z,16.10
2023-05-24T12:40:28.490Z,16.10
2023-05-24T12:42:57.931Z,16.10
2023-05-24T12:45:27.642Z,16.30
2023-05-24T12:47:57.540Z,16.30
2023-05-24T12:50:27.291Z,16.50
2023-05-24T12:52:57.411Z,16.60
2023-05-24T12:55:27.105Z,16.50
2023-05-24T12:57:56.464Z,16.30
2023-05-24T13:00:27.115Z,16.10
2023-05-24T13:02:58.710Z,16.10
2023-05-24T13:05:28.528Z,16.10
2023-05-24T13:07:58.855Z,16.10
2023-05-24T13:10:27.759Z,16.30
2023-05-24T13:12:56.270Z,16.40
2023-05-24T13:15:26.992Z,16.30
2023-05-24T13:17:56.223Z,16.30
2023-05-24T13:20:24.640Z,16.10
2023-05-24T13:23:03.556Z,16.20
2023-05-24T13:28:00.883Z,16.60
2023-05-24T13:32:58.770Z,16.90
2023-05-24T13:35:27.064Z,17.10
2023-05-24T13:37:55.874Z,17.10
2023-05-24T13:40:25.286Z,17.20
2023-05-24T13:42:53.750Z,17.00
2023-05-24T13:45:21.819Z,17.00
2023-05-24T13:47:49.898Z,17.00
2023-05-24T13:50:17.927Z,17.00
2023-05-24T13:52:45.767Z,17.00
2023-05-24T13:55:13.601Z,16.80
2023-05-24T13:57:51.782Z,16.70
2023-05-24T14:00:21.145Z,16.50
2023-05-24T14:02:49.304Z,16.60
2023-05-24T14:05:27.592Z,16.80
2023-05-24T14:07:57.388Z,16.70
2023-05-24T14:10:25.407Z,16.50
2023-05-24T14:13:12.834Z,16.30
2023-05-24T14:15:42.775Z,16.40
2023-05-24T14:18:10.998Z,16.50
2023-05-24T14:20:40.182Z,16.50
2023-05-24T14:23:09.886Z,16.60
2023-05-24T14:25:38.040Z,16.70
2023-05-24T14:28:08.396Z,17.00
2023-05-24T14:30:37.766Z,17.10
2023-05-24T14:33:08.108Z,17.20
2023-05-24T14:35:39.614Z,17.40
2023-05-24T14:40:37.384Z,17.60
2023-05-24T14:43:10.022Z,17.50
2023-05-24T14:45:41.157Z,17.60
2023-05-24T14:48:11.318Z,17.60
2023-05-24T14:50:39.819Z,17.90
2023-05-24T14:53:09.778Z,18.00
2023-05-24T14:55:37.725Z,18.00
2023-05-24T14:58:09.062Z,18.00
2023-05-24T15:00:37.441Z,18.00
2023-05-24T15:03:08.012Z,18.20
2023-05-24T15:08:06.236Z,18.60
2023-05-24T15:10:34.268Z,18.70
2023-05-24T15:13:03.584Z,18.70
2023-05-24T15:15:32.921Z,18.80
2023-05-24T15:18:00.954Z,18.80
2023-05-24T15:20:28.940Z,18.80
2023-05-24T15:25:25.380Z,18.90
2023-05-24T15:27:53.248Z,18.80
2023-05-24T15:30:22.717Z,18.90
2023-05-24T15:32:52.004Z,18.70
2023-05-24T15:37:48.157Z,18.50
2023-05-24T15:40:16.160Z,18.50
2023-05-24T15:42:45.069Z,18.30
2023-05-24T15:45:13.238Z,18.10
2023-05-24T15:47:41.076Z,18.10
2023-05-24T15:50:11.278Z,18.00
2023-05-24T15:52:39.080Z,17.80
2023-05-24T15:55:07.935Z,17.70
2023-05-24T15:57:35.919Z,17.70
2023-05-24T16:02:32.482Z,17.70
2023-05-24T16:07:32.868Z,17.40
2023-05-24T16:10:00.800Z,17.30
2023-05-24T16:12:30.085Z,17.30
2023-05-24T16:14:59.002Z,17.40
2023-05-24T16:17:27.015Z,17.60
2023-05-24T16:19:55.288Z,17.80
2023-05-24T16:22:23.888Z,18.00
2023-05-24T16:24:53.400Z,18.20
2023-05-24T16:27:21.286Z,18.50
2023-05-24T16:29:49.388Z,18.80
2023-05-24T16:32:17.287Z,19.20
2023-05-24T16:37:20.289Z,19.30
2023-05-24T16:39:48.259Z,19.20
2023-05-24T16:42:17.528Z,19.00
2023-05-24T16:44:45.350Z,18.70
2023-05-24T16:49:41.596Z,18.40
2023-05-24T16:52:09.419Z,18.50
2023-05-24T16:54:37.316Z,18.50
2023-05-24T16:57:06.665Z,18.40
2023-05-24T16:59:36.068Z,18.40
2023-05-24T17:02:04.153Z,18.20
2023-05-24T17:09:29.012Z,18.20
2023-05-24T17:11:56.937Z,18.40
2023-05-24T17:16:54.333Z,18.30
2023-05-24T17:19:22.305Z,18.10
2023-05-24T17:21:50.194Z,18.10
2023-05-24T17:24:19.143Z,18.00
2023-05-24T17:26:47.154Z,18.00
2023-05-24T17:29:15.044Z,17.90
2023-05-24T17:31:43.086Z,17.80
2023-05-24T17:34:12.416Z,17.70
2023-05-24T17:36:40.323Z,17.90
2023-05-24T17:39:08.474Z,18.20
2023-05-24T17:41:36.306Z,18.50
2023-05-24T17:44:05.109Z,18.80
2023-05-24T17:46:36.017Z,19.00
2023-05-24T17:49:04.753Z,19.20
2023-05-24T17:51:35.097Z,19.40
2023-05-24T17:54:03.029Z,19.50
2023-05-24T17:56:31.319Z,19.50
2023-05-24T17:58:59.434Z,19.70
2023-05-24T18:01:28.988Z,19.90
2023-05-24T18:03:57.031Z,20.00
2023-05-24T18:06:24.951Z,20.00
2023-05-24T18:08:54.156Z,20.10
2023-05-24T18:11:22.092Z,20.10
2023-05-24T18:13:49.991Z,19.70
2023-05-24T18:16:18.080Z,19.60
2023-05-24T18:18:46.176Z,19.60
2023-05-24T18:21:14.030Z,19.50
2023-05-24T18:23:42.750Z,19.60
2023-05-24T18:26:13.086Z,19.50
2023-05-24T18:28:42.171Z,19.40
2023-05-24T18:33:39.544Z,19.10
2023-05-24T18:38:39.860Z,18.50
2023-05-24T18:41:12.021Z,18.10
2023-05-24T18:51:11.449Z,17.20
2023-05-24T18:56:08.544Z,16.80
2023-05-24T18:58:36.420Z,16.60
2023-05-24T19:01:05.739Z,16.50
2023-05-24T19:03:33.707Z,16.40
2023-05-24T19:06:01.619Z,16.30
2023-05-24T19:08:29.507Z,16.10
2023-05-24T19:10:57.330Z,16.00
2023-05-24T19:15:54.213Z,15.90
2023-05-24T19:20:51.986Z,15.80
2023-05-24T19:23:19.784Z,15.70
2023-05-24T19:25:50.129Z,15.60
2023-05-24T19:28:18.406Z,15.40
2023-05-24T19:30:46.330Z,15.30
2023-05-24T19:33:14.341Z,15.30
2023-05-24T19:35:43.754Z,15.20
2023-05-24T19:38:12.088Z,15.20
2023-05-24T19:40:40.129Z,15.10
2023-05-24T19:43:07.989Z,15.10
2023-05-24T19:45:35.829Z,15.00
2023-05-24T19:48:04.948Z,14.50
2023-05-24T19:53:02.470Z,14.90
2023-05-24T19:55:32.577Z,14.90
2023-05-24T19:58:00.374Z,14.80
2023-05-24T20:00:28.175Z,14.80
2023-05-24T20:07:53.043Z,14.70
2023-05-24T20:10:22.354Z,14.60
2023-05-24T20:12:50.325Z,14.60
2023-05-24T20:15:19.403Z,14.50
2023-05-24T20:17:48.316Z,14.40
2023-05-24T20:20:17.878Z,14.40
2023-05-24T20:22:45.794Z,14.40
2023-05-24T20:25:13.722Z,14.30
2023-05-24T20:27:45.361Z,14.30
2023-05-24T20:30:15.583Z,14.30
2023-05-24T20:32:43.381Z,14.30
2023-05-24T20:35:11.767Z,14.20
2023-05-24T20:37:40.470Z,14.20
2023-05-24T20:40:19.711Z,14.20
2023-05-24T20:42:49.175Z,14.20
2023-05-24T20:45:24.078Z,14.20
2023-05-24T20:47:53.419Z,14.10
2023-05-24T20:55:18.872Z,14.10
2023-05-24T20:57:48.153Z,14.10
2023-05-24T21:00:17.088Z,14.00
2023-05-24T21:02:45.111Z,14.00
2023-05-24T21:05:12.985Z,14.00
2023-05-24T21:07:41.091Z,14.10
2023-05-24T21:10:09.834Z,14.00
2023-05-24T21:15:08.731Z,14.00
2023-05-24T21:17:36.624Z,14.00
2023-05-24T21:20:05.001Z,14.00
2023-05-24T21:22:32.927Z,13.80
2023-05-24T21:27:28.929Z,13.70
2023-05-24T21:29:56.787Z,13.70
2023-05-24T21:32:25.987Z,13.60
2023-05-24T21:34:53.811Z,13.60
2023-05-24T21:37:35.762Z,13.50
2023-05-24T21:40:05.072Z,13.50
2023-05-24T21:42:32.896Z,13.50
2023-05-24T21:45:00.661Z,13.40
2023-05-24T21:47:29.825Z,13.40
2023-05-24T21:49:58.037Z,13.30
2023-05-24T21:52:25.859Z,13.30
2023-05-24T21:54:53.703Z,13.30
2023-05-24T21:59:49.868Z,13.20
2023-05-24T22:02:17.720Z,13.20
2023-05-24T22:04:46.938Z,13.20
2023-05-24T22:07:14.747Z,13.20
2023-05-24T22:09:42.550Z,13.20
2023-05-24T22:12:10.506Z,13.20
2023-05-24T22:17:06.578Z,13.00
2023-05-24T22:22:06.808Z,13.00
2023-05-24T22:24:35.054Z,12.90
2023-05-24T22:27:03.186Z,12.90
2023-05-24T22:29:31.138Z,12.80
2023-05-24T22:31:58.946Z,12.80
2023-05-24T22:34:27.967Z,12.80
2023-05-24T22:36:57.498Z,12.80
2023-05-24T22:39:26.885Z,12.70
2023-05-24T22:41:54.715Z,12.70
2023-05-24T22:44:22.552Z,12.70
2023-05-24T22:46:53.793Z,12.60
2023-05-24T22:49:21.894Z,12.60
2023-05-24T22:51:51.357Z,12.50
2023-05-24T22:54:19.248Z,12.50
2023-05-24T22:56:48.444Z,12.50
2023-05-24T22:59:16.353Z,12.50
2023-05-24T23:01:45.118Z,12.50
2023-05-24T23:04:21.072Z,12.50
2023-05-24T23:06:52.107Z,12.50
2023-05-24T23:09:28.792Z,12.50
2023-05-24T23:11:58.365Z,12.40
2023-05-24T23:14:26.515Z,12.40
2023-05-24T23:16:54.410Z,12.40
2023-05-24T23:21:52.694Z,12.40
2023-05-24T23:24:20.537Z,12.30
2023-05-24T23:26:48.329Z,14.50
2023-05-24T23:29:17.626Z,12.30
2023-05-24T23:31:45.627Z,12.20
2023-05-24T23:34:13.594Z,12.10
2023-05-24T23:39:10.946Z,12.10
2023-05-24T23:41:38.801Z,12.00
2023-05-24T23:46:36.460Z,12.00
2023-05-24T23:49:04.315Z,11.90
2023-05-24T23:51:34.650Z,11.90
2023-05-24T23:54:02.497Z,11.90
2023-05-24T23:56:30.280Z,11.90
2023-05-24T23:58:58.110Z,11.90
